Maria Noelle — WDD9564 — position and weather

sailwx.info

Track history (hours):
 
Tides and Currents Weather Stations Pressure Air Temp Water Temp Dewpoint Dewpoint Depression Visibility Wind Speed Wind Dir Waves Ship Positions

Maria Noelle

Owner: MUROS INC, POINT PLEASANT, NJ. More information available from US FCC via Universal Licensing System and Coast Guard Vessel Documentation Center.

Last reported at 2016-Jul-25 09:33 UTC. Time now 2016-Jul-25 10:06 UTC.
Position N 40°05' W 073°14'.

Length 26 m.

Type: Fishing. MMSI: 367313170.

Date/timePositionNaut miles runAvg speedWind from/ knotsBaromVisibWave heightAir tempDewpointWater temp
2016-Jul-25 09:33N 40°05' W 073°14'1 0.8
2016-Jul-25 08:33N 40°06' W 073°14'2 2.1
2016-Jul-25 07:33N 40°04' W 073°13'1 0.9
2016-Jul-25 06:33N 40°05' W 073°12'1 0.7
2016-Jul-25 05:33N 40°05' W 073°13'2 2.1
2016-Jul-25 04:33N 40°05' W 073°16'8 7.6
2016-Jul-25 03:33N 40°05' W 073°26'8 8.3
2016-Jul-25 02:34N 40°05' W 073°36'9 8.5
2016-Jul-25 01:33N 40°06' W 073°48'9 8.2
2016-Jul-25 00:29N 40°06' W 073°59'3 0.0
2016-Jul-22 21:32N 40°06' W 074°02'41 3.0
2016-Jul-22 08:05N 40°06' W 073°09'5 1.3
2016-Jul-22 04:33N 40°06' W 073°15'7 7.1
2016-Jul-22 03:33N 40°07' W 073°24'9 8.9
2016-Jul-22 02:34N 40°07' W 073°36'9 9.2
2016-Jul-22 01:33N 40°06' W 073°48'8 8.3
2016-Jul-22 00:33N 40°06' W 073°59'3 0.1
2016-Jul-20 07:26N 40°06' W 074°02'1 0.1
2016-Jul-19 12:33N 40°06' W 074°00'1 1.4
2016-Jul-19 11:33N 40°06' W 074°02'8 7.6
2016-Jul-19 10:33N 40°06' W 073°52'25 7.5
2016-Jul-19 07:17N 40°05' W 073°20'9 2.5
2016-Jul-19 03:32N 40°06' W 073°08'2 2.1
2016-Jul-19 02:32N 40°04' W 073°10'38 4.6
2016-Jul-18 18:23N 40°06' W 073°59'2 2.6
2016-Jul-18 17:32N 40°06' W 074°02'1 0.7
2016-Jul-18 16:33N 40°06' W 074°01'24 8.1
2016-Jul-18 13:33N 40°05' W 073°30'9 8.3
2016-Jul-18 12:30N 40°05' W 073°18'10 2.5
2016-Jul-18 08:33N 40°05' W 073°05'4 3.3
2016-Jul-18 07:14N 40°04' W 073°11'1 0.6
2016-Jul-18 05:28N 40°04' W 073°10'2 2.1
2016-Jul-18 04:23N 40°05' W 073°12'4 4.8
2016-Jul-18 03:33N 40°07' W 073°17'9 8.4
2016-Jul-18 02:32N 40°07' W 073°28'25 8.5
2016-Jul-17 23:33N 40°06' W 074°01'1 0.0
2016-Jul-16 15:22N 40°06' W 074°02'0 0.0
2016-Jul-16 14:33N 40°06' W 074°02'16 8.1
2016-Jul-16 12:32N 40°07' W 073°41'22 4.1
2016-Jul-16 07:14N 40°05' W 073°12'37 3.8
2016-Jul-15 21:33N 40°06' W 074°01'1 0.1
2016-Jul-15 13:25N 40°06' W 074°02'16 7.6
2016-Jul-15 11:16N 40°06' W 073°41'6 8.0
2016-Jul-15 10:32N 40°06' W 073°33'8 8.1
2016-Jul-15 09:33N 40°07' W 073°23'  
Track history (hours):
 
Tides and Currents Weather Stations Pressure Air Temp Water Temp Dewpoint Dewpoint Depression Visibility Wind Speed Wind Dir Waves Ship Positions

Maria Noelle

Owner: MUROS INC, POINT PLEASANT, NJ. More information available from US FCC via Universal Licensing System and Coast Guard Vessel Documentation Center.

Last reported at 2016-Jul-25 09:33 UTC. Time now 2016-Jul-25 10:06 UTC.
Position N 40°05' W 073°14'.

Length 26 m.

Type: Fishing. MMSI: 367313170.

Date/timePositionNaut miles runAvg speedWind from/ knotsBaromVisibWave heightAir tempDewpointWater temp
2016-Jul-25 09:33N 40°05' W 073°14'1 0.8
2016-Jul-25 08:33N 40°06' W 073°14'2 2.1
2016-Jul-25 07:33N 40°04' W 073°13'1 0.9
2016-Jul-25 06:33N 40°05' W 073°12'1 0.7
2016-Jul-25 05:33N 40°05' W 073°13'2 2.1
2016-Jul-25 04:33N 40°05' W 073°16'8 7.6
2016-Jul-25 03:33N 40°05' W 073°26'8 8.3
2016-Jul-25 02:34N 40°05' W 073°36'9 8.5
2016-Jul-25 01:33N 40°06' W 073°48'9 8.2
2016-Jul-25 00:29N 40°06' W 073°59'3 0.0
2016-Jul-22 21:32N 40°06' W 074°02'41 3.0
2016-Jul-22 08:05N 40°06' W 073°09'5 1.3
2016-Jul-22 04:33N 40°06' W 073°15'7 7.1
2016-Jul-22 03:33N 40°07' W 073°24'9 8.9
2016-Jul-22 02:34N 40°07' W 073°36'9 9.2
2016-Jul-22 01:33N 40°06' W 073°48'8 8.3
2016-Jul-22 00:33N 40°06' W 073°59'3 0.1
2016-Jul-20 07:26N 40°06' W 074°02'1 0.1
2016-Jul-19 12:33N 40°06' W 074°00'1 1.4
2016-Jul-19 11:33N 40°06' W 074°02'8 7.6
2016-Jul-19 10:33N 40°06' W 073°52'25 7.5
2016-Jul-19 07:17N 40°05' W 073°20'9 2.5
2016-Jul-19 03:32N 40°06' W 073°08'2 2.1
2016-Jul-19 02:32N 40°04' W 073°10'38 4.6
2016-Jul-18 18:23N 40°06' W 073°59'2 2.6
2016-Jul-18 17:32N 40°06' W 074°02'1 0.7
2016-Jul-18 16:33N 40°06' W 074°01'24 8.1
2016-Jul-18 13:33N 40°05' W 073°30'9 8.3
2016-Jul-18 12:30N 40°05' W 073°18'10 2.5
2016-Jul-18 08:33N 40°05' W 073°05'4 3.3
2016-Jul-18 07:14N 40°04' W 073°11'1 0.6
2016-Jul-18 05:28N 40°04' W 073°10'2 2.1
2016-Jul-18 04:23N 40°05' W 073°12'4 4.8
2016-Jul-18 03:33N 40°07' W 073°17'9 8.4
2016-Jul-18 02:32N 40°07' W 073°28'25 8.5
2016-Jul-17 23:33N 40°06' W 074°01'1 0.0
2016-Jul-16 15:22N 40°06' W 074°02'0 0.0
2016-Jul-16 14:33N 40°06' W 074°02'16 8.1
2016-Jul-16 12:32N 40°07' W 073°41'22 4.1
2016-Jul-16 07:14N 40°05' W 073°12'37 3.8
2016-Jul-15 21:33N 40°06' W 074°01'1 0.1
2016-Jul-15 13:25N 40°06' W 074°02'16 7.6
2016-Jul-15 11:16N 40°06' W 073°41'6 8.0
2016-Jul-15 10:32N 40°06' W 073°33'8 8.1
2016-Jul-15 09:33N 40°07' W 073°23'  

Dump ship's entire track history